地図

経路データ

SID SEASON NUMBER BASIN SUBBASIN NAME ISO_TIME NATURE LAT LON WMO_WIND WMO_PRES WMO_AGENCY TRACK_TYPE DIST2LAND LANDFALL IFLAG USA_AGENCY USA_ATCF_ID USA_LAT USA_LON USA_RECORD USA_STATUS USA_WIND USA_PRES USA_SSHS USA_R34_NE USA_R34_SE USA_R34_SW USA_R34_NW USA_R50_NE USA_R50_SE USA_R50_SW USA_R50_NW USA_R64_NE USA_R64_SE USA_R64_SW USA_R64_NW USA_POCI USA_ROCI USA_RMW USA_EYE TOKYO_LAT TOKYO_LON TOKYO_GRADE TOKYO_WIND TOKYO_PRES TOKYO_R50_DIR TOKYO_R50_LONG TOKYO_R50_SHORT TOKYO_R30_DIR TOKYO_R30_LONG TOKYO_R30_SHORT TOKYO_LAND CMA_LAT CMA_LON CMA_CAT CMA_WIND CMA_PRES HKO_LAT HKO_LON HKO_CAT HKO_WIND HKO_PRES NEWDELHI_LAT NEWDELHI_LON NEWDELHI_GRADE NEWDELHI_WIND NEWDELHI_PRES NEWDELHI_CI NEWDELHI_DP NEWDELHI_POCI REUNION_LAT REUNION_LON REUNION_TYPE REUNION_WIND REUNION_PRES REUNION_TNUM REUNION_CI REUNION_RMW REUNION_R34_NE REUNION_R34_SE REUNION_R34_SW REUNION_R34_NW REUNION_R50_NE REUNION_R50_SE REUNION_R50_SW REUNION_R50_NW REUNION_R64_NE REUNION_R64_SE REUNION_R64_SW REUNION_R64_NW BOM_LAT BOM_LON BOM_TYPE BOM_WIND BOM_PRES BOM_TNUM BOM_CI BOM_RMW BOM_R34_NE BOM_R34_SE BOM_R34_SW BOM_R34_NW BOM_R50_NE BOM_R50_SE BOM_R50_SW BOM_R50_NW BOM_R64_NE BOM_R64_SE BOM_R64_SW BOM_R64_NW BOM_ROCI BOM_POCI BOM_EYE BOM_POS_METHOD BOM_PRES_METHOD NADI_LAT NADI_LON NADI_CAT NADI_WIND NADI_PRES WELLINGTON_LAT WELLINGTON_LON WELLINGTON_WIND WELLINGTON_PRES DS824_LAT DS824_LON DS824_STAGE DS824_WIND DS824_PRES TD9636_LAT TD9636_LON TD9636_STAGE TD9636_WIND TD9636_PRES TD9635_LAT TD9635_LON TD9635_WIND TD9635_PRES TD9635_ROCI NEUMANN_LAT NEUMANN_LON NEUMANN_CLASS NEUMANN_WIND NEUMANN_PRES MLC_LAT MLC_LON MLC_CLASS MLC_WIND MLC_PRES USA_GUST BOM_GUST BOM_GUST_PER REUNION_GUST REUNION_GUST_PER USA_SEAHGT USA_SEARAD_NE USA_SEARAD_SE USA_SEARAD_SW USA_SEARAD_NW STORM_SPEED STORM_DIR
1923055S11151 1923 16 SP EA NOT_NAMED 1923-02-23 23:00:00 NR -11.0000 150.900 main 49 46 __________O___ -1 -11.0000 150.900 7 9 261
1923055S11151 1923 16 SP EA NOT_NAMED 1923-02-24 00:00:00 NR -11.0214 150.754 main 46 40 __________P___ -1 -11.0214 150.754 7 9 261
1923055S11151 1923 16 SP EA NOT_NAMED 1923-02-24 03:00:00 NR -11.0904 150.317 main 44 44 __________P___ -1 -11.0904 150.317 7 9 260
1923055S11151 1923 16 SP EA NOT_NAMED 1923-02-24 06:00:00 NR -11.1773 149.888 main 64 64 __________P___ -1 -11.1773 149.888 7 9 256
1923055S11151 1923 16 SP EA NOT_NAMED 1923-02-24 09:00:00 NR -11.2961 149.470 main 89 89 __________P___ -1 -11.2961 149.470 7 9 252
1923055S11151 1923 16 SP EA NOT_NAMED 1923-02-24 11:00:00 NR -11.4000 149.200 main 116 116 __________O___ -1 -11.4000 149.200 7 9 247
1923055S11151 1923 16 SP EA NOT_NAMED 1923-02-24 12:00:00 NR -11.4606 149.068 main 130 130 __________P___ -1 -11.4606 149.068 7 9 241
1923055S11151 1923 16 SP EA NOT_NAMED 1923-02-24 15:00:00 NR -11.6713 148.692 main 160 160 __________P___ -1 -11.6713 148.692 7 8 238
1923055S11151 1923 16 SP EA NOT_NAMED 1923-02-24 18:00:00 NR -11.9078 148.352 main 190 190 __________P___ -1 -11.9078 148.352 7 8 232
1923055S11151 1923 16 SP EA NOT_NAMED 1923-02-24 21:00:00 NR -12.1483 148.061 main 213 213 __________P___ -1 -12.1483 148.061 7 7 228
1923055S11151 1923 16 SP EA NOT_NAMED 1923-02-24 23:00:00 NR -12.3000 147.900 main 235 235 __________O___ -1 -12.3000 147.900 7 6 227
1923055S11151 1923 16 SP EA NOT_NAMED 1923-02-25 00:00:00 NR -12.3600 147.828 main 247 247 __________P___ -1 -12.3600 147.828 7 5 227
1923055S11151 1923 16 SP EA NOT_NAMED 1923-02-25 03:00:00 NR -12.5272 147.654 main 259 259 __________P___ -1 -12.5272 147.654 7 4 221
1923055S11151 1923 16 SP EA NOT_NAMED 1923-02-25 06:00:00 NR -12.6895 147.531 main 285 285 __________P___ -1 -12.6895 147.531 7 4 211
1923055S11151 1923 16 SP EA NOT_NAMED 1923-02-25 09:00:00 NR -12.8656 147.445 main 309 309 __________P___ -1 -12.8656 147.445 7 4 202
1923055S11151 1923 16 SP EA NOT_NAMED 1923-02-25 11:00:00 NR -13.0000 147.400 main 318 310 __________O___ -1 -13.0000 147.400 7 5 204
1923055S11151 1923 16 SP EA NOT_NAMED 1923-02-25 12:00:00 NR -13.0757 147.345 main 303 279 __________P___ -1 -13.0757 147.345 7 6 213
1923055S11151 1923 16 SP EA NOT_NAMED 1923-02-25 15:00:00 NR -13.3237 147.186 main 279 249 __________P___ -1 -13.3237 147.186 7 6 206
1923055S11151 1923 16 SP EA NOT_NAMED 1923-02-25 18:00:00 NR -13.5985 147.082 main 249 229 __________P___ -1 -13.5985 147.082 7 6 189
1923055S11151 1923 16 SP EA NOT_NAMED 1923-02-25 21:00:00 NR -13.8942 147.095 main 229 223 __________P___ -1 -13.8942 147.095 7 6 167
1923055S11151 1923 16 SP EA NOT_NAMED 1923-02-25 23:00:00 NR -14.1000 147.200 main 228 223 __________O___ -1 -14.1000 147.200 7 7 149
1923055S11151 1923 16 SP EA NOT_NAMED 1923-02-26 00:00:00 NR -14.2103 147.290 main 233 229 __________P___ -1 -14.2103 147.290 7 10 134
1923055S11151 1923 16 SP EA NOT_NAMED 1923-02-26 03:00:00 NR -14.5558 147.685 main 259 259 __________P___ -1 -14.5558 147.685 7 11 127
1923055S11151 1923 16 SP EA NOT_NAMED 1923-02-26 06:00:00 NR -14.9011 148.224 main 304 304 __________P___ -1 -14.9011 148.224 7 13 120
1923055S11151 1923 16 SP EA NOT_NAMED 1923-02-26 09:00:00 NR -15.2181 148.855 main 375 372 __________P___ -1 -15.2181 148.855 7 14 116
1923055S11151 1923 16 SP EA NOT_NAMED 1923-02-26 11:00:00 NR -15.4000 149.300 main 404 404 __________O___ -1 -15.4000 149.300 7 13 111
1923055S11151 1923 16 SP EA NOT_NAMED 1923-02-26 12:00:00 NR -15.4596 149.493 main 419 419 __________P___ -1 -15.4596 149.493 7 12 104
1923055S11151 1923 16 SP EA NOT_NAMED 1923-02-26 15:00:00 NR -15.5943 150.101 main 471 471 __________P___ -1 -15.5943 150.101 7 12 101
1923055S11151 1923 16 SP EA NOT_NAMED 1923-02-26 18:00:00 NR -15.7070 150.760 main 535 535 __________P___ -1 -15.7070 150.760 7 14 101
1923055S11151 1923 16 SP EA NOT_NAMED 1923-02-26 21:00:00 NR -15.8545 151.479 main 569 569 __________P___ -1 -15.8545 151.479 7 15 104
1923055S11151 1923 16 SP EA NOT_NAMED 1923-02-26 23:00:00 NR -16.0000 152.000 main 588 588 __________O___ -1 -16.0000 152.000 7 16 106
1923055S11151 1923 16 SP EA NOT_NAMED 1923-02-27 00:00:00 NR -16.0796 152.291 main 597 597 __________P___ -1 -16.0796 152.291 7 19 107
1923055S11151 1923 16 SP EA NOT_NAMED 1923-02-27 03:00:00 NR -16.3681 153.226 main 637 637 __________P___ -1 -16.3681 153.226 7 20 110
1923055S11151 1923 16 SP EA NOT_NAMED 1923-02-27 06:00:00 NR -16.7544 154.198 main 690 690 __________P___ -1 -16.7544 154.198 7 20 116
1923055S11151 1923 16 SP EA NOT_NAMED 1923-02-27 09:00:00 NR -17.2694 155.133 main 732 732 __________P___ -1 -17.2694 155.133 7 21 123
1923055S11151 1923 16 SP EA NOT_NAMED 1923-02-27 11:00:00 NR -17.7000 155.700 main 740 740 __________O___ -1 -17.7000 155.700 7 21 131
1923055S11151 1923 16 SP EA NOT_NAMED 1923-02-27 12:00:00 NR -17.9457 155.959 main 747 732 __________P___ -1 -17.9457 155.959 7 22 140
1923055S11151 1923 16 SP EA NOT_NAMED 1923-02-27 15:00:00 NR -18.7995 156.671 main 740 697 __________P___ -1 -18.7995 156.671 7 22 146
1923055S11151 1923 16 SP EA NOT_NAMED 1923-02-27 18:00:00 NR -19.7768 157.287 main 693 642 __________P___ -1 -19.7768 157.287 7 23 152
1923055S11151 1923 16 SP EA NOT_NAMED 1923-02-27 21:00:00 NR -20.8113 157.807 main 642 619 __________P___ -1 -20.8113 157.807 7 23 156
1923055S11151 1923 16 SP EA NOT_NAMED 1923-02-27 23:00:00 NR -21.5000 158.100 main 613 602 __________O___ -1 -21.5000 158.100 7 22 159
1923055S11151 1923 16 SP EA NOT_NAMED 1923-02-28 00:00:00 NR -21.8293 158.224 main 602 573 __________P___ -1 -21.8293 158.224 7 21 164
1923055S11151 1923 16 SP EA NOT_NAMED 1923-02-28 03:00:00 NR -22.8237 158.516 main 573 555 __________P___ -1 -22.8237 158.516 7 20 166
1923055S11151 1923 16 SP EA NOT_NAMED 1923-02-28 06:00:00 NR -23.8013 158.747 main 552 552 __________P___ -1 -23.8013 158.747 7 20 167
1923055S11151 1923 16 SP EA NOT_NAMED 1923-02-28 09:00:00 NR -24.7279 158.992 main 565 564 __________P___ -1 -24.7279 158.992 7 19 165
1923055S11151 1923 16 SP EA NOT_NAMED 1923-02-28 11:00:00 NR -25.3000 159.200 main 584 584 __________O___ -1 -25.3000 159.200 7 18 160
1923055S11151 1923 16 SP EA NOT_NAMED 1923-02-28 12:00:00 NR -25.5688 159.326 main 596 596 __________P___ -1 -25.5688 159.326 7 17 152
1923055S11151 1923 16 SP EA NOT_NAMED 1923-02-28 15:00:00 NR -26.3118 159.786 main 647 644 __________P___ -1 -26.3118 159.786 7 17 147
1923055S11151 1923 16 SP MM NOT_NAMED 1923-02-28 18:00:00 NR -26.9801 160.344 main 672 672 __________P___ -1 -26.9801 160.344 7 17 141
1923055S11151 1923 16 SP MM NOT_NAMED 1923-02-28 21:00:00 NR -27.6002 160.966 main 729 728 __________P___ -1 -27.6002 160.966 7 17 137
1923055S11151 1923 16 SP MM NOT_NAMED 1923-02-28 23:00:00 NR -28.0000 161.400 main 764 __________O___ -1 -28.0000 161.400 7 17 136

デジタル台風データ・検索

IBTrACS Databaseについて

本データベースは、米国NOAAが公開する1842年以降の世界の熱帯低気圧のベストトラックデータアーカイブInternational Best Track Archive for Climate Stewardship (IBTrACS)を、ウェブで閲覧しやすい形式に変換したものです。

最終更新日:2021-10-19